Portada
METAR-TAF:

METAR-TAF

Aeropuertos :

Aeropuerto de Melilla

Melilla, España

latitud: 35-17N, longitud: 002-57W, altitud: 47 m

Observación

El informe se hizo hace 24 minutos, a las 03:00 UTC
Viento 4 kt del suroeste, variando entre sur y oeste
Temperatura 18°C
Humedad 83%
Presión 1013 hPa

METAR: GEML 250300Z AUTO 23004KT 190V280 //// BKN018/// 18/15 Q1013

Hora: 05:24 (03:24 UTC)

Pronóstico

El informe se hizo hace 1 hora y 24 minutos, a las 02:00 UTC
Pronóstico válido del 25 a las 03 UTC al 26 a las 03 UTC
Viento 9 kt del oeste
Visibilidad 10 km o más
Nubes dispersas a una altura de 1200 ft
Nubes dispersas a una altura de 2000 ft
Probabilidad 30% :
Temporalmente
del 25 a las 03 UTC al 25 a las 10 UTC
Nubes dispersas a una altura de 1000 ft
Cielo nuboso a una altura de 1400 ft

TAF: GEML 250200Z 2503/2603 27009KT 9999 SCT012 SCT020 TX22/2514Z TN18/2505Z PROB30 TEMPO 2503/2510 SCT010 BKN014

Observaciones y pronósticos meteorológicos de más de 4000 aeropuertos (mensajes METAR y TAF).

Los puntos amarillos y rojos representan las estaciones disponibles.

Ponga el ratón en el punto deseado para ver el nombre de la estación.

Haga clic para ver las observaciones y los pronósticos meteorológicos.

Para cambiar el mapa : haga clic en los botones verdes con una cruz de color negro para hacer un zoom, en el botón verde con un guión para alejar o en las flechas verdes para mapas adyacentes.


METAR-TAF: